Time;durP1;ratioP1;P1;durP2;ratioP2;P2;SDS_P1;SDS_P2;PMS_P1;PMS_P2;Temp;Humidity;BMP_temperature;BMP_pressure;BME280_temperature;BME280_humidity;BME280_pressure;Samples;Min_cycle;Max_cycle;Signal;HPM_P1;HPM_P2
2023/07/17 00:00:47;;;;;;;;;;;;;;;;;;5029902;28;19925;-69
2023/07/17 00:03:14;;;;;;;;;;;;;;;;;;5030762;28;20402;-69
2023/07/17 00:05:42;;;;;;;;;;;;;;;;;;5029324;28;19932;-70
2023/07/17 00:08:08;;;;;;;;;;;;;;;;;;5030814;28;19925;-69
2023/07/17 00:10:36;;;;;;;;;;;;;;;;;;5030500;28;20301;-69
2023/07/17 00:13:03;;;;;;;;;;;;;;;;;;5030679;28;20386;-69
2023/07/17 00:15:29;;;;;;;;;;;;;;;;;;5030945;28;20386;-70
2023/07/17 00:17:56;;;;;;;;;;;;;;;;;;5029881;28;19932;-69
2023/07/17 00:20:23;;;;;;;;;;;;;;;;;;5030080;28;20003;-69
2023/07/17 00:22:51;;;;;;;;;;;;;;;;;;5030341;28;20012;-70
2023/07/17 00:25:17;;;;;;;;;;;;;;;;;;5030390;28;19925;-69
2023/07/17 00:27:44;;;;;;;;;;;;;;;;;;5030073;28;20386;-69
2023/07/17 00:30:10;;;;;;;;;;;;;;;;;;5030215;28;19929;-69
2023/07/17 00:32:37;;;;;;;;;;;;;;;;;;5030019;28;19925;-69
2023/07/17 00:35:03;;;;;;;;;;;;;;;;;;5030267;28;19929;-69
2023/07/17 00:37:30;;;;;;;;;;;;;;;;;;5029569;28;20011;-70
2023/07/17 00:39:58;;;;;;;;;;;;;;;;;;5029825;28;19925;-70
2023/07/17 00:42:24;;;;;;;;;;;;;;;;;;5030122;28;20444;-69
2023/07/17 00:44:50;;;;;;;;;;;;;;;;;;5030084;28;19925;-69
2023/07/17 00:47:17;;;;;;;;;;;;;;;;;;5044194;28;20378;-69
2023/07/17 00:49:43;;;;;;;;;;;;;;;;;;5049211;28;19925;-70
2023/07/17 00:52:10;;;;;;;;;;;;;;;;;;5049865;28;20283;-69
2023/07/17 00:54:37;;;;;;;;;;;;;;;;;;5049495;28;19944;-69
2023/07/17 00:57:05;;;;;;;;;;;;;;;;;;5049997;28;19924;-69
2023/07/17 00:59:32;;;;;;;;;;;;;;;;;;5049127;28;19924;-69
2023/07/17 01:01:58;;;;;;;;;;;;;;;;;;5050057;28;19924;-70
2023/07/17 01:04:25;;;;;;;;;;;;;;;;;;5049444;28;20317;-69
2023/07/17 01:06:51;;;;;;;;;;;;;;;;;;5050037;28;19933;-69
2023/07/17 01:09:17;;;;;;;;;;;;;;;;;;5049596;28;19940;-69
2023/07/17 01:11:44;;;;;;;;;;;;;;;;;;5049444;28;19932;-69
2023/07/17 01:14:16;;;;;;;;;;;;;;;;;;5050120;28;19964;-70
2023/07/17 01:16:43;;;;;;;;;;;;;;;;;;5049788;28;19979;-69
2023/07/17 01:19:09;;;;;;;;;;;;;;;;;;5054017;28;19964;-70
2023/07/17 01:21:36;;;;;;;;;;;;;;;;;;5052996;28;19924;-70
2023/07/17 01:24:04;;;;;;;;;;;;;;;;;;5053747;28;19932;-70
2023/07/17 01:26:31;;;;;;;;;;;;;;;;;;5053049;28;19925;-69
2023/07/17 01:28:57;;;;;;;;;;;;;;;;;;5053133;28;19925;-69
2023/07/17 01:31:23;;;;;;;;;;;;;;;;;;5052384;28;19978;-69
2023/07/17 01:33:50;;;;;;;;;;;;;;;;;;5053017;28;19929;-69
2023/07/17 01:36:16;;;;;;;;;;;;;;;;;;5053493;28;19931;-70
2023/07/17 01:38:43;;;;;;;;;;;;;;;;;;5054263;28;19975;-69
2023/07/17 01:41:10;;;;;;;;;;;;;;;;;;5053519;28;19975;-70
2023/07/17 01:43:37;;;;;;;;;;;;;;;;;;5054112;28;20385;-70
2023/07/17 01:46:03;;;;;;;;;;;;;;;;;;5052902;28;20366;-69
2023/07/17 01:48:30;;;;;;;;;;;;;;;;;;5051632;28;19932;-69
2023/07/17 01:50:56;;;;;;;;;;;;;;;;;;5052914;28;19924;-69
2023/07/17 01:53:22;;;;;;;;;;;;;;;;;;5052575;28;19925;-69
2023/07/17 01:55:49;;;;;;;;;;;;;;;;;;5052968;28;19925;-69
2023/07/17 01:58:16;;;;;;;;;;;;;;;;;;5052249;28;19936;-70
2023/07/17 02:00:43;;;;;;;;;;;;;;;;;;5052569;28;19931;-69
2023/07/17 02:03:10;;;;;;;;;;;;;;;;;;5052559;28;19925;-69
2023/07/17 02:05:36;;;;;;;;;;;;;;;;;;5052938;28;20638;-70
2023/07/17 02:08:03;;;;;;;;;;;;;;;;;;5051964;28;19931;-70
2023/07/17 02:10:30;;;;;;;;;;;;;;;;;;5052384;28;19929;-69
2023/07/17 02:12:56;;;;;;;;;;;;;;;;;;5052319;28;19924;-69
2023/07/17 02:15:24;;;;;;;;;;;;;;;;;;5052182;28;19925;-69
2023/07/17 02:17:50;;;;;;;;;;;;;;;;;;5052402;28;19924;-69
2023/07/17 02:20:16;;;;;;;;;;;;;;;;;;5051738;28;20378;-69
2023/07/17 02:22:43;;;;;;;;;;;;;;;;;;5052719;28;19924;-70
2023/07/17 02:25:09;;;;;;;;;;;;;;;;;;5052140;28;19925;-69
2023/07/17 02:27:36;;;;;;;;;;;;;;;;;;5052357;28;19936;-69
2023/07/17 02:30:03;;;;;;;;;;;;;;;;;;5050198;28;19932;-70
2023/07/17 02:32:31;;;;;;;;;;;;;;;;;;5052478;28;19924;-70
2023/07/17 02:34:57;;;;;;;;;;;;;;;;;;5051825;28;19947;-70
2023/07/17 02:37:23;;;;;;;;;;;;;;;;;;5051996;28;19925;-69
2023/07/17 02:39:50;;;;;;;;;;;;;;;;;;5051066;28;19925;-69
2023/07/17 02:42:16;;;;;;;;;;;;;;;;;;5051935;28;19928;-69
2023/07/17 02:44:42;;;;;;;;;;;;;;;;;;5051289;28;20374;-70
2023/07/17 02:47:09;;;;;;;;;;;;;;;;;;5052005;28;19931;-70
2023/07/17 02:49:38;;;;;;;;;;;;;;;;;;5051677;28;20314;-69
2023/07/17 02:52:04;;;;;;;;;;;;;;;;;;5051624;28;20405;-69
2023/07/17 02:54:31;;;;;;;;;;;;;;;;;;5050412;28;19925;-69
2023/07/17 02:56:57;;;;;;;;;;;;;;;;;;5050823;28;20317;-69
2023/07/17 02:59:24;;;;;;;;;;;;;;;;;;5051713;28;19925;-70
2023/07/17 03:01:50;;;;;;;;;;;;;;;;;;5051119;28;19948;-70
2023/07/17 03:04:16;;;;;;;;;;;;;;;;;;5051551;28;19931;-69
2023/07/17 03:06:44;;;;;;;;;;;;;;;;;;5051340;28;20376;-70
2023/07/17 03:09:11;;;;;;;;;;;;;;;;;;5051497;28;19925;-69
2023/07/17 03:11:37;;;;;;;;;;;;;;;;;;5050414;28;19925;-70
2023/07/17 03:14:03;;;;;;;;;;;;;;;;;;5051507;28;19932;-69
2023/07/17 03:16:30;;;;;;;;;;;;;;;;;;5051522;28;19947;-70
2023/07/17 03:18:57;;;;;;;;;;;;;;;;;;5050796;28;19929;-70
2023/07/17 03:21:23;;;;;;;;;;;;;;;;;;5050806;28;19924;-69
2023/07/17 03:23:51;;;;;;;;;;;;;;;;;;5051357;28;19928;-70
2023/07/17 03:26:17;;;;;;;;;;;;;;;;;;5050901;28;20385;-69
2023/07/17 03:28:45;;;;;;;;;;;;;;;;;;5050965;28;20294;-69
2023/07/17 03:31:11;;;;;;;;;;;;;;;;;;5050741;28;19932;-69
2023/07/17 03:33:38;;;;;;;;;;;;;;;;;;5050886;28;19925;-70
2023/07/17 03:36:04;;;;;;;;;;;;;;;;;;5051557;28;20019;-70
2023/07/17 03:38:31;;;;;;;;;;;;;;;;;;5050629;28;19924;-70
2023/07/17 03:40:59;;;;;;;;;;;;;;;;;;5050257;28;20609;-69
2023/07/17 03:43:25;;;;;;;;;;;;;;;;;;5050647;28;19925;-69
2023/07/17 03:45:52;;;;;;;;;;;;;;;;;;5051037;28;19928;-69
2023/07/17 03:50:52;;;;;;;;;;;;;;;;;;5049730;28;19933;-67
2023/07/17 03:53:19;;;;;;;;;;;;;;;;;;5051363;28;19931;-67
2023/07/17 03:55:45;;;;;;;;;;;;;;;;;;5050225;28;19948;-67
2023/07/17 03:58:13;;;;;;;;;;;;;;;;;;5050845;28;19925;-66
2023/07/17 04:00:39;;;;;;;;;;;;;;;;;;5050768;28;19925;-66
2023/07/17 04:03:06;;;;;;;;;;;;;;;;;;5051046;28;19925;-67
2023/07/17 04:05:32;;;;;;;;;;;;;;;;;;5050408;28;19925;-67
2023/07/17 04:07:58;;;;;;;;;;;;;;;;;;5050971;28;20016;-66
2023/07/17 04:10:27;;;;;;;;;;;;;;;;;;5050590;28;19935;-67
2023/07/17 04:12:54;;;;;;;;;;;;;;;;;;5051324;28;19983;-68
2023/07/17 04:15:21;;;;;;;;;;;;;;;;;;5050571;28;19924;-68
2023/07/17 04:17:48;;;;;;;;;;;;;;;;;;5050893;28;19931;-68
2023/07/17 04:20:16;;;;;;;;;;;;;;;;;;5050965;28;20304;-67
2023/07/17 04:22:42;;;;;;;;;;;;;;;;;;5050734;28;20324;-67
2023/07/17 04:25:09;;;;;;;;;;;;;;;;;;5050659;28;19964;-67
2023/07/17 04:27:35;;;;;;;;;;;;;;;;;;5050440;28;20019;-67
2023/07/17 04:30:02;;;;;;;;;;;;;;;;;;5050612;28;19924;-66
2023/07/17 04:32:30;;;;;;;;;;;;;;;;;;5050205;28;19925;-67
2023/07/17 04:34:57;;;;;;;;;;;;;;;;;;5050953;28;19925;-67
2023/07/17 04:37:23;;;;;;;;;;;;;;;;;;5050050;28;19931;-66
2023/07/17 04:39:49;;;;;;;;;;;;;;;;;;5050907;28;19932;-66
2023/07/17 04:42:16;;;;;;;;;;;;;;;;;;5050594;28;19931;-68
2023/07/17 04:44:43;;;;;;;;;;;;;;;;;;5050964;28;19932;-67
2023/07/17 04:47:10;;;;;;;;;;;;;;;;;;5049942;28;19925;-67
2023/07/17 04:49:38;;;;;;;;;;;;;;;;;;5050527;28;20007;-67
2023/07/17 04:52:04;;;;;;;;;;;;;;;;;;5051170;28;19935;-67
2023/07/17 04:54:31;;;;;;;;;;;;;;;;;;5054493;28;20007;-66
2023/07/17 04:56:57;;;;;;;;;;;;;;;;;;5054344;28;19944;-66
2023/07/17 04:59:24;;;;;;;;;;;;;;;;;;5053047;28;19925;-67
2023/07/17 05:01:50;;;;;;;;;;;;;;;;;;5054260;28;19925;-67
2023/07/17 05:04:16;;;;;;;;;;;;;;;;;;5053959;28;19925;-67
2023/07/17 05:06:44;;;;;;;;;;;;;;;;;;5054539;28;19933;-68
2023/07/17 05:09:11;;;;;;;;;;;;;;;;;;5053917;28;19931;-67
2023/07/17 05:11:37;;;;;;;;;;;;;;;;;;5054304;28;19983;-67
2023/07/17 05:14:03;;;;;;;;;;;;;;;;;;5053699;28;19925;-66
2023/07/17 05:16:30;;;;;;;;;;;;;;;;;;5054167;28;19925;-67
2023/07/17 05:18:56;;;;;;;;;;;;;;;;;;5053871;28;20325;-67
2023/07/17 05:21:22;;;;;;;;;;;;;;;;;;5054133;28;19924;-67
2023/07/17 05:23:50;;;;;;;;;;;;;;;;;;5053465;28;19929;-66
2023/07/17 05:26:16;;;;;;;;;;;;;;;;;;5053935;28;19925;-66
2023/07/17 05:28:43;;;;;;;;;;;;;;;;;;5053503;28;19925;-67
2023/07/17 05:31:09;;;;;;;;;;;;;;;;;;5053717;28;19931;-67
2023/07/17 05:33:36;;;;;;;;;;;;;;;;;;5053728;28;19929;-67
2023/07/17 05:36:02;;;;;;;;;;;;;;;;;;5053255;28;19931;-68
2023/07/17 05:38:29;;;;;;;;;;;;;;;;;;5053550;28;19971;-67
2023/07/17 05:40:59;;;;;;;;;;;;;;;;;;5053132;28;20003;-66
2023/07/17 05:43:26;;;;;;;;;;;;;;;;;;5054079;28;19925;-66
2023/07/17 05:45:53;;;;;;;;;;;;;;;;;;5053215;28;20313;-67
2023/07/17 05:48:20;;;;;;;;;;;;;;;;;;5053559;28;20023;-67
2023/07/17 05:50:46;;;;;;;;;;;;;;;;;;5053276;28;20259;-68
2023/07/17 05:53:13;;;;;;;;;;;;;;;;;;5053471;28;19947;-67
2023/07/17 05:55:39;;;;;;;;;;;;;;;;;;5053123;28;19955;-67
2023/07/17 05:58:07;;;;;;;;;;;;;;;;;;5053237;28;19932;-67
2023/07/17 06:00:33;;;;;;;;;;;;;;;;;;5053018;28;20474;-67
2023/07/17 06:03:00;;;;;;;;;;;;;;;;;;5052531;28;19932;-68
2023/07/17 06:05:26;;;;;;;;;;;;;;;;;;5053220;28;19931;-67
2023/07/17 06:07:53;;;;;;;;;;;;;;;;;;5052771;28;20282;-65
2023/07/17 06:10:19;;;;;;;;;;;;;;;;;;5053466;28;19929;-67
2023/07/17 06:12:46;;;;;;;;;;;;;;;;;;5052497;28;20012;-68
2023/07/17 06:15:14;;;;;;;;;;;;;;;;;;5053154;28;19925;-67
2023/07/17 06:17:40;;;;;;;;;;;;;;;;;;5052683;28;19928;-67
2023/07/17 06:20:08;;;;;;;;;;;;;;;;;;5052959;28;20308;-67
2023/07/17 06:22:34;;;;;;;;;;;;;;;;;;5052199;28;19925;-66
2023/07/17 06:25:01;;;;;;;;;;;;;;;;;;5052599;28;20404;-67
2023/07/17 06:27:27;;;;;;;;;;;;;;;;;;5052207;28;19924;-67
2023/07/17 06:29:53;;;;;;;;;;;;;;;;;;5052779;28;20374;-67
2023/07/17 06:32:21;;;;;;;;;;;;;;;;;;5051206;28;19925;-67
2023/07/17 06:34:48;;;;;;;;;;;;;;;;;;5052072;28;19925;-68
2023/07/17 06:37:14;;;;;;;;;;;;;;;;;;5052374;28;19932;-68
2023/07/17 06:39:41;;;;;;;;;;;;;;;;;;5051844;28;20294;-66
2023/07/17 06:42:08;;;;;;;;;;;;;;;;;;5052304;28;20012;-66
2023/07/17 06:44:35;;;;;;;;;;;;;;;;;;5051935;28;20012;-66
2023/07/17 06:47:01;;;;;;;;;;;;;;;;;;5051905;28;19924;-66
2023/07/17 06:49:29;;;;;;;;;;;;;;;;;;5050267;28;19931;-67
2023/07/17 06:51:55;;;;;;;;;;;;;;;;;;5051364;28;19986;-67
2023/07/17 06:54:22;;;;;;;;;;;;;;;;;;5052036;28;20271;-67
2023/07/17 06:56:48;;;;;;;;;;;;;;;;;;5051420;28;19929;-67
2023/07/17 06:59:15;;;;;;;;;;;;;;;;;;5051643;28;19987;-69
2023/07/17 07:01:42;;;;;;;;;;;;;;;;;;5050746;28;19929;-68
2023/07/17 07:04:08;;;;;;;;;;;;;;;;;;5050299;28;19924;-68
2023/07/17 07:06:36;;;;;;;;;;;;;;;;;;5051538;28;19925;-68
2023/07/17 07:09:03;;;;;;;;;;;;;;;;;;5049513;28;19931;-67
2023/07/17 07:11:29;;;;;;;;;;;;;;;;;;5049661;28;19924;-68
2023/07/17 07:13:55;;;;;;;;;;;;;;;;;;5051484;28;19932;-68
2023/07/17 07:16:22;;;;;;;;;;;;;;;;;;5048797;28;19929;-67
2023/07/17 07:18:48;;;;;;;;;;;;;;;;;;5048443;28;20058;-69
2023/07/17 07:21:15;;;;;;;;;;;;;;;;;;5050147;28;19924;-70
2023/07/17 07:23:42;;;;;;;;;;;;;;;;;;5051374;28;19928;-68
2023/07/17 07:26:09;;;;;;;;;;;;;;;;;;5051542;28;19925;-68
2023/07/17 07:28:35;;;;;;;;;;;;;;;;;;5048421;28;19931;-68
2023/07/17 07:31:02;;;;;;;;;;;;;;;;;;5049601;28;19931;-67
2023/07/17 07:33:28;;;;;;;;;;;;;;;;;;5048602;28;19936;-67
2023/07/17 07:35:55;;;;;;;;;;;;;;;;;;5050257;28;20012;-67
2023/07/17 07:38:21;;;;;;;;;;;;;;;;;;5050574;28;20004;-67
2023/07/17 07:40:49;;;;;;;;;;;;;;;;;;5050148;28;20408;-67
2023/07/17 07:43:15;;;;;;;;;;;;;;;;;;5050634;28;19936;-68
2023/07/17 07:45:42;;;;;;;;;;;;;;;;;;5049991;28;19932;-68
2023/07/17 07:48:08;;;;;;;;;;;;;;;;;;5049479;28;20267;-67
2023/07/17 07:50:35;;;;;;;;;;;;;;;;;;5049684;28;19946;-67
2023/07/17 07:53:01;;;;;;;;;;;;;;;;;;5049614;28;19925;-65
2023/07/17 07:55:28;;;;;;;;;;;;;;;;;;5050481;28;19980;-67
2023/07/17 07:57:56;;;;;;;;;;;;;;;;;;5050470;28;19925;-66
2023/07/17 08:00:23;;;;;;;;;;;;;;;;;;5050538;28;19925;-67
2023/07/17 08:02:50;;;;;;;;;;;;;;;;;;5049011;28;20037;-68
2023/07/17 08:05:16;;;;;;;;;;;;;;;;;;5046817;28;20390;-68
2023/07/17 08:07:43;;;;;;;;;;;;;;;;;;5048270;28;19928;-69
2023/07/17 08:10:10;;;;;;;;;;;;;;;;;;5049079;28;20003;-68
2023/07/17 08:12:36;;;;;;;;;;;;;;;;;;5049850;28;19956;-68
2023/07/17 08:15:04;;;;;;;;;;;;;;;;;;5049534;28;19924;-69
2023/07/17 08:17:31;;;;;;;;;;;;;;;;;;5048224;28;20287;-68
2023/07/17 08:19:57;;;;;;;;;;;;;;;;;;5048011;28;19924;-67
2023/07/17 08:22:24;;;;;;;;;;;;;;;;;;5044607;28;20024;-67
2023/07/17 08:24:50;;;;;;;;;;;;;;;;;;5048818;28;19947;-69
2023/07/17 08:27:16;;;;;;;;;;;;;;;;;;5050923;28;20465;-69
2023/07/17 08:29:43;;;;;;;;;;;;;;;;;;5052667;28;19925;-68
2023/07/17 08:32:11;;;;;;;;;;;;;;;;;;5053754;28;19925;-67
2023/07/17 08:34:37;;;;;;;;;;;;;;;;;;5049918;28;19925;-68
2023/07/17 08:37:04;;;;;;;;;;;;;;;;;;5052628;28;19932;-67
2023/07/17 08:39:30;;;;;;;;;;;;;;;;;;5052428;28;19935;-67
2023/07/17 08:41:57;;;;;;;;;;;;;;;;;;5053315;28;19931;-67
2023/07/17 08:44:23;;;;;;;;;;;;;;;;;;5054242;28;19925;-68
2023/07/17 08:46:51;;;;;;;;;;;;;;;;;;5053490;28;20467;-67
2023/07/17 08:49:19;;;;;;;;;;;;;;;;;;5052716;28;19929;-67
2023/07/17 08:51:47;;;;;;;;;;;;;;;;;;5053410;28;20015;-68
2023/07/17 08:54:15;;;;;;;;;;;;;;;;;;5053770;28;19931;-68
2023/07/17 08:56:42;;;;;;;;;;;;;;;;;;5053734;28;20368;-67
2023/07/17 08:59:10;;;;;;;;;;;;;;;;;;5051620;28;19967;-68
2023/07/17 09:01:37;;;;;;;;;;;;;;;;;;5053243;28;19925;-68
2023/07/17 09:04:04;;;;;;;;;;;;;;;;;;5052229;28;20380;-68
2023/07/17 09:06:31;;;;;;;;;;;;;;;;;;5053295;28;19931;-67
2023/07/17 09:08:58;;;;;;;;;;;;;;;;;;5053603;28;19936;-68
2023/07/17 09:11:24;;;;;;;;;;;;;;;;;;5052894;28;19925;-68
2023/07/17 09:13:50;;;;;;;;;;;;;;;;;;5053728;28;19925;-68
2023/07/17 09:16:18;;;;;;;;;;;;;;;;;;5052661;28;19929;-68
2023/07/17 09:18:45;;;;;;;;;;;;;;;;;;5053473;28;19929;-68
2023/07/17 09:21:12;;;;;;;;;;;;;;;;;;5052704;28;19929;-68
2023/07/17 09:23:41;;;;;;;;;;;;;;;;;;5053352;28;19932;-68
2023/07/17 09:26:07;;;;;;;;;;;;;;;;;;5053716;28;19925;-68
2023/07/17 09:28:36;;;;;;;;;;;;;;;;;;5052633;28;19999;-68
2023/07/17 09:31:03;;;;;;;;;;;;;;;;;;5053054;28;20429;-67
2023/07/17 09:33:30;;;;;;;;;;;;;;;;;;5053341;28;19925;-67
2023/07/17 09:35:57;;;;;;;;;;;;;;;;;;5051284;28;19982;-69
2023/07/17 09:38:25;;;;;;;;;;;;;;;;;;5051691;28;20292;-69
2023/07/17 09:40:53;;;;;;;;;;;;;;;;;;5052175;28;19935;-69
2023/07/17 09:43:29;;;;;;;;;;;;;;;;;;5052729;28;20305;-69
2023/07/17 09:45:59;;;;;;;;;;;;;;;;;;5049265;28;19932;-73
2023/07/17 09:48:26;;;;;;;;;;;;;;;;;;5050511;28;20365;-68
2023/07/17 09:50:53;;;;;;;;;;;;;;;;;;5063363;22;20091;-72
2023/07/17 09:53:19;;;;;;;;;;;;;;;;;;5052970;28;19931;-72
2023/07/17 09:55:48;;;;;;;;;;;;;;;;;;5052532;28;19924;-72
2023/07/17 09:58:16;;;;;;;;;;;;;;;;;;5052468;28;19925;-72
2023/07/17 10:00:43;;;;;;;;;;;;;;;;;;5052802;28;20008;-71
2023/07/17 10:03:10;;;;;;;;;;;;;;;;;;5052777;28;20392;-71
2023/07/17 10:05:37;;;;;;;;;;;;;;;;;;5052252;28;20296;-72
2023/07/17 10:08:04;;;;;;;;;;;;;;;;;;5052332;28;19925;-69
2023/07/17 10:10:31;;;;;;;;;;;;;;;;;;5052086;28;19925;-72
2023/07/17 10:12:57;;;;;;;;;;;;;;;;;;5052780;28;19925;-71
2023/07/17 10:15:25;;;;;;;;;;;;;;;;;;5052423;28;19925;-71
2023/07/17 10:17:55;;;;;;;;;;;;;;;;;;5052909;28;19935;-71
2023/07/17 10:20:21;;;;;;;;;;;;;;;;;;5052712;28;19951;-72
2023/07/17 10:22:48;;;;;;;;;;;;;;;;;;5052402;28;20298;-69
2023/07/17 10:25:24;;;;;;;;;;;;;;;;;;5053143;28;20361;-72
2023/07/17 10:27:53;;;;;;;;;;;;;;;;;;5052259;28;20378;-72
2023/07/17 10:30:23;;;;;;;;;;;;;;;;;;5053098;28;20295;-71
2023/07/17 10:33:04;;;;;;;;;;;;;;;;;;5052889;28;19925;-72
2023/07/17 10:35:32;;;;;;;;;;;;;;;;;;5065354;28;19930;-72
2023/07/17 10:38:08;;;;;;;;;;;;;;;;;;5072818;28;19924;-72
2023/07/17 10:40:35;;;;;;;;;;;;;;;;;;5073141;28;20339;-72
2023/07/17 10:43:10;;;;;;;;;;;;;;;;;;5072817;28;19924;-72
2023/07/17 10:45:36;;;;;;;;;;;;;;;;;;5072612;28;19947;-72
2023/07/17 10:48:05;;;;;;;;;;;;;;;;;;5072550;28;19928;-69
2023/07/17 10:50:31;;;;;;;;;;;;;;;;;;5070294;28;19924;-71
2023/07/17 10:53:01;;;;;;;;;;;;;;;;;;5072514;28;19931;-69
2023/07/17 10:55:28;;;;;;;;;;;;;;;;;;5071966;28;19925;-70
2023/07/17 10:57:55;;;;;;;;;;;;;;;;;;5069941;28;19924;-72
2023/07/17 11:00:21;;;;;;;;;;;;;;;;;;5047587;28;19929;-73
2023/07/17 11:02:47;;;;;;;;;;;;;;;;;;5065205;28;19936;-73
2023/07/17 11:05:15;;;;;;;;;;;;;;;;;;5071374;28;19924;-73
2023/07/17 11:07:42;;;;;;;;;;;;;;;;;;5071650;28;20297;-73
2023/07/17 11:10:11;;;;;;;;;;;;;;;;;;5071350;28;19932;-73
2023/07/17 11:12:37;;;;;;;;;;;;;;;;;;5071560;28;19925;-71
2023/07/17 11:15:05;;;;;;;;;;;;;;;;;;5071466;28;19944;-73
2023/07/17 11:17:32;;;;;;;;;;;;;;;;;;5063114;28;19931;-71
2023/07/17 11:20:00;;;;;;;;;;;;;;;;;;5051571;28;19960;-72
2023/07/17 11:22:31;;;;;;;;;;;;;;;;;;5050959;28;19925;-73
2023/07/17 11:24:57;;;;;;;;;;;;;;;;;;5051837;28;19925;-73
2023/07/17 11:27:24;;;;;;;;;;;;;;;;;;5050488;28;20305;-73
2023/07/17 11:29:51;;;;;;;;;;;;;;;;;;5050880;28;19932;-73
2023/07/17 11:32:19;;;;;;;;;;;;;;;;;;5049778;28;19929;-72
2023/07/17 11:34:46;;;;;;;;;;;;;;;;;;5050436;28;19932;-71
2023/07/17 11:37:27;;;;;;;;;;;;;;;;;;5051150;28;19925;-72
2023/07/17 11:39:59;;;;;;;;;;;;;;;;;;5053915;28;20297;-69
2023/07/17 11:42:25;;;;;;;;;;;;;;;;;;5059074;28;19924;-67
2023/07/17 11:44:58;;;;;;;;;;;;;;;;;;5050379;28;19935;-67
2023/07/17 11:47:26;;;;;;;;;;;;;;;;;;5050793;28;20365;-67
2023/07/17 11:49:53;;;;;;;;;;;;;;;;;;5049651;28;19933;-67
2023/07/17 11:52:20;;;;;;;;;;;;;;;;;;5050519;28;19925;-68
2023/07/17 11:54:46;;;;;;;;;;;;;;;;;;5050513;28;19935;-68
2023/07/17 11:57:14;;;;;;;;;;;;;;;;;;5050766;28;20166;-68
2023/07/17 11:59:44;;;;;;;;;;;;;;;;;;5049752;28;20024;-68
2023/07/17 12:02:11;;;;;;;;;;;;;;;;;;5050386;28;19925;-68
2023/07/17 12:04:40;;;;;;;;;;;;;;;;;;5049152;28;20317;-69
2023/07/17 12:07:06;;;;;;;;;;;;;;;;;;5050042;28;19932;-68
2023/07/17 12:09:33;;;;;;;;;;;;;;;;;;5050132;28;19928;-68
2023/07/17 12:11:59;;;;;;;;;;;;;;;;;;5049955;28;20092;-68
2023/07/17 12:14:27;;;;;;;;;;;;;;;;;;5050525;28;19931;-68
2023/07/17 12:16:53;;;;;;;;;;;;;;;;;;5049934;28;19929;-68
2023/07/17 12:19:19;;;;;;;;;;;;;;;;;;5048625;28;20394;-69
2023/07/17 12:21:47;;;;;;;;;;;;;;;;;;5048126;28;19933;-69
2023/07/17 12:24:13;;;;;;;;;;;;;;;;;;5050247;28;20291;-68
2023/07/17 12:26:40;;;;;;;;;;;;;;;;;;5049667;28;19947;-69
2023/07/17 12:29:07;;;;;;;;;;;;;;;;;;5050192;28;20354;-68
2023/07/17 12:31:34;;;;;;;;;;;;;;;;;;5049572;28;19955;-68
2023/07/17 12:34:01;;;;;;;;;;;;;;;;;;5064488;28;19931;-69
2023/07/17 12:36:27;;;;;;;;;;;;;;;;;;5069746;28;19928;-68
2023/07/17 12:39:10;;;;;;;;;;;;;;;;;;5067324;28;19928;-69
2023/07/17 12:41:37;;;;;;;;;;;;;;;;;;5049397;28;19925;-68
2023/07/17 12:44:04;;;;;;;;;;;;;;;;;;5049554;28;19928;-69
2023/07/17 12:46:30;;;;;;;;;;;;;;;;;;5049573;28;20374;-68
2023/07/17 12:48:58;;;;;;;;;;;;;;;;;;5050724;28;19925;-68
2023/07/17 12:51:24;;;;;;;;;;;;;;;;;;5049124;28;20400;-68
2023/07/17 12:53:51;;;;;;;;;;;;;;;;;;5049754;28;19928;-68
2023/07/17 12:56:18;;;;;;;;;;;;;;;;;;5049871;28;19952;-68
2023/07/17 12:58:44;;;;;;;;;;;;;;;;;;5049872;28;19929;-69
2023/07/17 13:01:11;;;;;;;;;;;;;;;;;;5048589;28;19935;-66
2023/07/17 13:03:38;;;;;;;;;;;;;;;;;;5050227;28;19932;-68
2023/07/17 13:06:06;;;;;;;;;;;;;;;;;;5049256;28;19979;-68
2023/07/17 13:08:32;;;;;;;;;;;;;;;;;;5049629;28;19954;-68
2023/07/17 13:10:58;;;;;;;;;;;;;;;;;;5048191;28;19924;-68
2023/07/17 13:13:25;;;;;;;;;;;;;;;;;;5051226;28;19924;-66
2023/07/17 13:15:51;;;;;;;;;;;;;;;;;;5052561;28;19932;-66
2023/07/17 13:18:17;;;;;;;;;;;;;;;;;;5053667;28;19924;-68
2023/07/17 13:20:45;;;;;;;;;;;;;;;;;;5051729;28;20309;-68
2023/07/17 13:23:12;;;;;;;;;;;;;;;;;;5053638;28;19925;-68
2023/07/17 13:25:39;;;;;;;;;;;;;;;;;;5053524;28;20295;-68
2023/07/17 13:28:05;;;;;;;;;;;;;;;;;;5053322;28;20015;-68
2023/07/17 13:30:32;;;;;;;;;;;;;;;;;;5052845;28;19929;-68
2023/07/17 13:32:58;;;;;;;;;;;;;;;;;;5052110;28;19925;-68
2023/07/17 13:35:25;;;;;;;;;;;;;;;;;;5053347;28;19978;-68
2023/07/17 13:37:52;;;;;;;;;;;;;;;;;;5053053;28;20293;-68
2023/07/17 13:40:22;;;;;;;;;;;;;;;;;;5052988;28;19925;-67
2023/07/17 13:42:49;;;;;;;;;;;;;;;;;;5052417;28;19924;-67
2023/07/17 13:45:15;;;;;;;;;;;;;;;;;;5052986;28;20378;-67
2023/07/17 13:47:42;;;;;;;;;;;;;;;;;;5052748;28;19925;-67
2023/07/17 13:50:09;;;;;;;;;;;;;;;;;;5051428;28;19925;-67
2023/07/17 13:52:35;;;;;;;;;;;;;;;;;;5053079;28;19924;-67
2023/07/17 13:55:02;;;;;;;;;;;;;;;;;;5052556;28;19925;-68
2023/07/17 13:57:30;;;;;;;;;;;;;;;;;;5052640;28;19925;-67
2023/07/17 13:59:56;;;;;;;;;;;;;;;;;;5052100;28;19925;-67
2023/07/17 14:02:23;;;;;;;;;;;;;;;;;;5051530;28;20178;-67
2023/07/17 14:04:49;;;;;;;;;;;;;;;;;;5052879;28;19925;-67
2023/07/17 14:07:15;;;;;;;;;;;;;;;;;;5052253;28;19947;-67
2023/07/17 14:09:42;;;;;;;;;;;;;;;;;;5052367;28;20409;-67
2023/07/17 14:12:09;;;;;;;;;;;;;;;;;;5052145;28;19929;-67
2023/07/17 14:14:37;;;;;;;;;;;;;;;;;;5052495;28;19925;-67
2023/07/17 14:17:03;;;;;;;;;;;;;;;;;;5052183;28;19925;-67
2023/07/17 14:19:30;;;;;;;;;;;;;;;;;;5051792;28;20007;-67
2023/07/17 14:21:56;;;;;;;;;;;;;;;;;;5051962;28;20319;-67
2023/07/17 14:24:23;;;;;;;;;;;;;;;;;;5031248;28;19932;-68
2023/07/17 14:26:49;;;;;;;;;;;;;;;;;;5033100;28;20330;-67
2023/07/17 14:29:16;;;;;;;;;;;;;;;;;;5031958;28;19932;-67
2023/07/17 14:31:43;;;;;;;;;;;;;;;;;;5032131;28;20393;-68
2023/07/17 14:34:10;;;;;;;;;;;;;;;;;;5050787;28;19925;-68
2023/07/17 14:36:36;;;;;;;;;;;;;;;;;;5052178;28;20294;-67
2023/07/17 14:39:03;;;;;;;;;;;;;;;;;;5051455;28;19924;-68
2023/07/17 14:41:30;;;;;;;;;;;;;;;;;;5051949;28;19924;-68
2023/07/17 14:43:56;;;;;;;;;;;;;;;;;;5051262;28;19925;-68
2023/07/17 14:46:23;;;;;;;;;;;;;;;;;;5050425;28;20408;-67
2023/07/17 14:48:50;;;;;;;;;;;;;;;;;;5051630;28;19979;-67
2023/07/17 14:51:17;;;;;;;;;;;;;;;;;;5051061;28;20397;-67
2023/07/17 14:53:44;;;;;;;;;;;;;;;;;;5051816;28;19929;-67
2023/07/17 14:56:10;;;;;;;;;;;;;;;;;;5051514;28;19929;-67
2023/07/17 14:58:36;;;;;;;;;;;;;;;;;;5051029;28;20375;-68
2023/07/17 15:01:03;;;;;;;;;;;;;;;;;;5051215;28;19940;-67
2023/07/17 15:03:29;;;;;;;;;;;;;;;;;;5051779;28;20321;-67
2023/07/17 15:05:57;;;;;;;;;;;;;;;;;;5051394;28;19932;-67
2023/07/17 15:08:23;;;;;;;;;;;;;;;;;;5051372;28;19928;-67
2023/07/17 15:10:50;;;;;;;;;;;;;;;;;;5051432;28;19931;-68
2023/07/17 15:13:16;;;;;;;;;;;;;;;;;;5051198;28;20381;-67
2023/07/17 15:15:43;;;;;;;;;;;;;;;;;;5051622;28;19931;-67
2023/07/17 15:18:09;;;;;;;;;;;;;;;;;;5051051;28;19925;-67
2023/07/17 15:20:35;;;;;;;;;;;;;;;;;;5051159;28;20302;-68
2023/07/17 15:23:03;;;;;;;;;;;;;;;;;;5051210;28;19937;-68
2023/07/17 15:25:29;;;;;;;;;;;;;;;;;;5051419;28;19925;-68
2023/07/17 15:27:56;;;;;;;;;;;;;;;;;;5050881;28;19931;-68
2023/07/17 15:30:23;;;;;;;;;;;;;;;;;;5051216;28;19925;-68
2023/07/17 15:32:49;;;;;;;;;;;;;;;;;;5051097;28;20290;-68
2023/07/17 15:35:16;;;;;;;;;;;;;;;;;;5051154;28;19931;-68
2023/07/17 15:37:42;;;;;;;;;;;;;;;;;;5050386;28;19936;-68
2023/07/17 15:40:10;;;;;;;;;;;;;;;;;;5051044;28;20012;-68
2023/07/17 15:42:37;;;;;;;;;;;;;;;;;;5051255;28;20285;-68
2023/07/17 15:45:04;;;;;;;;;;;;;;;;;;5050681;28;19925;-68
2023/07/17 15:47:30;;;;;;;;;;;;;;;;;;5051035;28;20412;-68
2023/07/17 15:49:56;;;;;;;;;;;;;;;;;;5061663;22;19925;-65
2023/07/17 15:52:23;;;;;;;;;;;;;;;;;;5050550;28;19925;-66
2023/07/17 15:54:49;;;;;;;;;;;;;;;;;;5050364;28;19925;-65
2023/07/17 15:57:17;;;;;;;;;;;;;;;;;;5050632;28;19979;-67
2023/07/17 15:59:43;;;;;;;;;;;;;;;;;;5049689;28;19929;-65
2023/07/17 16:02:10;;;;;;;;;;;;;;;;;;5050612;28;19931;-66
2023/07/17 16:04:36;;;;;;;;;;;;;;;;;;5050290;28;19936;-66
2023/07/17 16:07:02;;;;;;;;;;;;;;;;;;5050739;28;20442;-66
2023/07/17 16:09:29;;;;;;;;;;;;;;;;;;5050467;28;19931;-65
2023/07/17 16:11:56;;;;;;;;;;;;;;;;;;5049769;28;20327;-65
2023/07/17 16:14:24;;;;;;;;;;;;;;;;;;5050673;28;19932;-65
2023/07/17 16:16:50;;;;;;;;;;;;;;;;;;5049902;28;19947;-67
2023/07/17 16:19:16;;;;;;;;;;;;;;;;;;5050440;28;20220;-65
2023/07/17 16:21:43;;;;;;;;;;;;;;;;;;5049921;28;19925;-65
2023/07/17 16:24:09;;;;;;;;;;;;;;;;;;5050310;28;19925;-66
2023/07/17 16:26:36;;;;;;;;;;;;;;;;;;5048725;28;20322;-65
2023/07/17 16:29:03;;;;;;;;;;;;;;;;;;5050770;28;19925;-65
2023/07/17 16:31:30;;;;;;;;;;;;;;;;;;5049523;28;19935;-66
2023/07/17 16:33:57;;;;;;;;;;;;;;;;;;5050650;28;19978;-66
2023/07/17 16:36:25;;;;;;;;;;;;;;;;;;5050209;28;19972;-66
2023/07/17 16:38:51;;;;;;;;;;;;;;;;;;5050614;28;20016;-65
2023/07/17 16:41:18;;;;;;;;;;;;;;;;;;5049946;28;19925;-65
2023/07/17 16:43:44;;;;;;;;;;;;;;;;;;5050569;28;20462;-65
2023/07/17 16:46:10;;;;;;;;;;;;;;;;;;5050041;28;19959;-65